Weather History for KELO - November, 2011

Change the Weather History Date:

Friday, November 11, 2011

  Actual Average Record
Temperature  
Mean Temperature 29 °F -  
Max Temperature 41 °F 35 °F 60 °F (2005)
Min Temperature 17 °F 22 °F 6 °F (2008)
Degree Days  
Heating Degree Days 36    
Moisture  
Dew Point 21 °F    
Average Humidity 71    
Maximum Humidity 93    
Minimum Humidity 45    
Precipitation  
Precipitation 0.00 in - - ()
Sea Level Pressure  
Sea Level Pressure 29.60 in    
Wind  
Wind Speed 5 mph (SSW)    
Max Wind Speed 16 mph    
Max Gust Speed 23 mph    
Visibility 10 miles    
Events Snow    
Averages and records for this station are not official NWS values.
T = Trace of Precipitation, MM = Missing Value Source: NWS Daily Summary

Daily Weather History Graph

Daily Weather History Graph

Search for Another Location

Airport or City:

Trip Planner

Search our weather history database for the weather conditions in past years. The results will help you decide how hot, cold, wet, or windy it might be!

Date:

Astronomy

Nov. 11, 2011 Rise Set
Actual Time 7:06 AM CST 4:35 PM CST
Civil Twilight 6:33 AM CST 5:08 PM CST
Nautical Twilight 5:56 AM CST 5:45 PM CST
Astronomical Twilight 5:19 AM CST 6:22 PM CST
Moon 4:57 PM CST (11/11) 8:02 AM CST (11/11)
Length of Visible Light 10h 35m
Length of Day
9h 28m
Full, 99% of the Moon is Illuminated
Nov 11
Full
Nov 18
Last Quarter
Nov 25
New
Dec 2
First Quarter
Dec 10
Full

Hourly Weather History & Observations

Time (CST) Temp. Windchill Dew Point Humidity Pressure Visibility Wind Dir Wind Speed Gust Speed Precip Events Conditions
12:12 AM 23.0 °F - 17.6 °F 80% 29.83 in 10.0 mi Calm Calm - N/A   Scattered Clouds
12:33 AM 23.0 °F - 17.6 °F 80% 29.83 in 10.0 mi Calm Calm - N/A   Clear
12:53 AM 21.2 °F 16.4 °F 17.6 °F 86% 29.82 in 10.0 mi SSW 3.5 mph - N/A   Clear
1:13 AM 21.2 °F - 17.6 °F 86% 29.81 in 10.0 mi Calm Calm - N/A   Scattered Clouds
1:32 AM 21.2 °F - 17.6 °F 86% 29.81 in 10.0 mi Calm Calm - N/A   Scattered Clouds
1:53 AM 17.6 °F - 15.8 °F 93% 29.81 in 10.0 mi Calm Calm - N/A   Mostly Cloudy
2:13 AM 17.6 °F - 15.8 °F 93% 29.80 in 10.0 mi Calm Calm - N/A   Mostly Cloudy
2:32 AM 17.6 °F - 15.8 °F 93% 29.79 in 10.0 mi Calm Calm - N/A   Scattered Clouds
2:53 AM 17.6 °F 12.3 °F 15.8 °F 93% 29.77 in 10.0 mi SE 3.5 mph - N/A   Scattered Clouds
3:13 AM 19.4 °F 14.3 °F 15.8 °F 86% 29.76 in 10.0 mi SE 3.5 mph - N/A   Scattered Clouds
3:32 AM 21.2 °F 16.4 °F 17.6 °F 86% 29.75 in 10.0 mi SSE 3.5 mph - N/A   Mostly Cloudy
3:53 AM 23.0 °F - 19.4 °F 86% 29.75 in 10.0 mi Calm Calm - N/A   Mostly Cloudy
4:13 AM 23.0 °F - 19.4 °F 86% 29.74 in 10.0 mi Calm Calm - N/A   Scattered Clouds
4:32 AM 23.0 °F 18.4 °F 19.4 °F 86% 29.73 in 10.0 mi SE 3.5 mph - N/A   Scattered Clouds
4:53 AM 21.2 °F 12.6 °F 19.4 °F 93% 29.72 in 10.0 mi SSE 6.9 mph - N/A   Scattered Clouds
5:13 AM 23.0 °F 17.0 °F 19.4 °F 86% 29.72 in 10.0 mi SSE 4.6 mph - N/A   Mostly Cloudy
5:32 AM 23.0 °F 17.0 °F 19.4 °F 86% 29.71 in 10.0 mi SSE 4.6 mph - N/A   Overcast
5:53 AM 23.0 °F 18.4 °F 19.4 °F 86% 29.71 in 10.0 mi SSE 3.5 mph - N/A   Overcast
6:13 AM 24.8 °F 17.9 °F 19.4 °F 80% 29.70 in 10.0 mi SSE 5.8 mph - N/A   Overcast
6:33 AM 24.8 °F 17.9 °F 19.4 °F 80% 29.69 in 10.0 mi SSE 5.8 mph - N/A   Overcast
6:53 AM 24.8 °F 17.9 °F 21.2 °F 86% 29.68 in 7.0 mi South 5.8 mph - N/A Snow Light Snow
7:13 AM 24.8 °F 16.1 °F 21.2 °F 86% 29.66 in 2.5 mi South 8.1 mph - N/A Snow Light Snow
7:33 AM 26.6 °F 18.2 °F 23.0 °F 86% 29.64 in 3.0 mi South 8.1 mph - N/A Snow Light Snow
7:53 AM 26.6 °F 18.2 °F 23.0 °F 86% 29.62 in 10.0 mi South 8.1 mph - N/A   Mostly Cloudy
8:13 AM 26.6 °F 18.2 °F 23.0 °F 86% 29.61 in 10.0 mi South 8.1 mph - N/A   Mostly Cloudy
8:33 AM 28.4 °F 19.7 °F 24.8 °F 86% 29.59 in 10.0 mi South 9.2 mph - N/A   Overcast
8:53 AM 28.4 °F 19.1 °F 24.8 °F 86% 29.59 in 10.0 mi South 10.4 mph - N/A   Overcast
9:12 AM 30.2 °F 21.3 °F 24.8 °F 80% 29.58 in 10.0 mi South 10.4 mph 18.4 mph N/A   Overcast
9:33 AM 30.2 °F 18.9 °F 24.8 °F 80% 29.57 in 10.0 mi South 16.1 mph - N/A   Overcast
9:53 AM 30.2 °F 21.3 °F 23.0 °F 75% 29.56 in 10.0 mi South 10.4 mph 18.4 mph N/A   Overcast
10:12 AM 32.0 °F 23.0 °F 21.2 °F 64% 29.54 in 10.0 mi South 11.5 mph 17.3 mph N/A   Mostly Cloudy
10:33 AM 33.8 °F 25.8 °F 21.2 °F 60% 29.54 in 10.0 mi SSW 10.4 mph 23.0 mph N/A   Scattered Clouds
10:52 AM 33.8 °F 25.8 °F 21.2 °F 60% 29.53 in 10.0 mi South 10.4 mph 21.9 mph N/A   Mostly Cloudy
11:13 AM 33.8 °F 26.4 °F 21.2 °F 60% 29.52 in 10.0 mi SSW 9.2 mph 17.3 mph N/A   Overcast
11:32 AM 35.6 °F 25.9 °F 21.2 °F 56% 29.49 in 10.0 mi SSW 16.1 mph 21.9 mph N/A   Overcast
11:53 AM 35.6 °F 27.5 °F 21.2 °F 56% 29.49 in 10.0 mi SSW 11.5 mph 17.3 mph N/A   Overcast
12:13 PM 37.4 °F 30.3 °F 21.2 °F 52% 29.48 in 10.0 mi SW 10.4 mph - N/A   Overcast
12:32 PM 37.4 °F 30.8 °F 21.2 °F 52% 29.47 in 10.0 mi SSW 9.2 mph 18.4 mph N/A   Overcast
12:53 PM 37.4 °F 29.8 °F 21.2 °F 52% 29.46 in 10.0 mi SW 11.5 mph 17.3 mph N/A   Mostly Cloudy
1:13 PM 39.2 °F 32.0 °F 21.2 °F 49% 29.45 in 10.0 mi SSW 11.5 mph 16.1 mph N/A   Scattered Clouds
1:32 PM 39.2 °F 31.6 °F 21.2 °F 49% 29.44 in 10.0 mi SSW 12.7 mph 17.3 mph N/A   Scattered Clouds
1:53 PM 41.0 °F 33.5 °F 21.2 °F 45% 29.44 in 10.0 mi SW 13.8 mph 20.7 mph N/A   Scattered Clouds
2:12 PM 41.0 °F 34.3 °F 21.2 °F 45% 29.44 in 10.0 mi SSW 11.5 mph - N/A   Clear
2:32 PM 41.0 °F 34.7 °F 21.2 °F 45% 29.43 in 10.0 mi SSW 10.4 mph 17.3 mph N/A   Clear
2:53 PM 41.0 °F 35.2 °F 21.2 °F 45% 29.43 in 10.0 mi SW 9.2 mph - N/A   Clear
3:13 PM 41.0 °F 35.8 °F 21.2 °F 45% 29.44 in 10.0 mi SW 8.1 mph - N/A   Clear
3:32 PM 41.0 °F 35.8 °F 23.0 °F 49% 29.44 in 10.0 mi SW 8.1 mph - N/A   Scattered Clouds
3:53 PM 39.2 °F 33.0 °F 23.0 °F 52% 29.44 in 10.0 mi SW 9.2 mph - N/A   Scattered Clouds
4:13 PM 39.2 °F 33.6 °F 23.0 °F 52% 29.44 in 10.0 mi SW 8.1 mph - N/A   Clear
4:32 PM 39.2 °F 33.0 °F 23.0 °F 52% 29.44 in 10.0 mi SW 9.2 mph - N/A   Clear
4:53 PM 39.2 °F 35.0 °F 23.0 °F 52% 29.44 in 10.0 mi SW 5.8 mph - N/A   Clear
5:13 PM 37.4 °F 33.8 °F 23.0 °F 56% 29.44 in 10.0 mi SW 4.6 mph - N/A   Clear
5:32 PM 37.4 °F 32.1 °F 23.0 °F 56% 29.45 in 10.0 mi SW 6.9 mph - N/A   Clear
5:53 PM 37.4 °F 33.8 °F 23.0 °F 56% 29.46 in 10.0 mi WSW 4.6 mph - N/A   Clear
6:13 PM 37.4 °F 34.9 °F 23.0 °F 56% 29.46 in 10.0 mi WSW 3.5 mph - N/A   Clear
6:33 PM 35.6 °F 31.7 °F 23.0 °F 60% 29.46 in 10.0 mi WSW 4.6 mph - N/A   Clear
6:53 PM 35.6 °F 31.7 °F 23.0 °F 60% 29.46 in 10.0 mi WSW 4.6 mph - N/A   Clear
7:12 PM 35.6 °F 30.7 °F 23.0 °F 60% 29.46 in 10.0 mi SW 5.8 mph - N/A   Clear
7:33 PM 35.6 °F 30.7 °F 23.0 °F 60% 29.46 in 10.0 mi SW 5.8 mph - N/A   Clear
7:53 PM 35.6 °F 31.7 °F 23.0 °F 60% 29.46 in 10.0 mi WSW 4.6 mph - N/A   Clear
8:13 PM 35.6 °F 30.7 °F 24.8 °F 65% 29.46 in 10.0 mi WSW 5.8 mph - N/A   Clear
8:33 PM 33.8 °F 30.8 °F 24.8 °F 70% 29.46 in 10.0 mi SW 3.5 mph - N/A   Clear
8:53 PM 33.8 °F 30.8 °F 24.8 °F 70% 29.46 in 10.0 mi SW 3.5 mph - N/A   Clear
9:12 PM 33.8 °F 29.6 °F 24.8 °F 70% 29.47 in 10.0 mi SW 4.6 mph - N/A   Clear
9:33 PM 30.2 °F - 24.8 °F 80% 29.47 in 10.0 mi Calm Calm - N/A   Clear
9:53 PM 28.4 °F - 24.8 °F 86% 29.47 in 10.0 mi Calm Calm - N/A   Clear
10:12 PM 28.4 °F - 23.0 °F 80% 29.47 in 10.0 mi Calm Calm - N/A   Clear
10:33 PM 28.4 °F 24.6 °F 23.0 °F 80% 29.48 in 10.0 mi WSW 3.5 mph - N/A   Clear
10:53 PM 26.6 °F 22.6 °F 23.0 °F 86% 29.48 in 10.0 mi WSW 3.5 mph - N/A   Clear
11:12 PM 26.6 °F - 23.0 °F 86% 29.48 in 10.0 mi Calm Calm - N/A   Clear
11:33 PM 26.6 °F - 23.0 °F 86% 29.49 in 10.0 mi Calm Calm - N/A   Clear
11:52 PM 26.6 °F - 23.0 °F 86% 29.49 in 10.0 mi Calm Calm - N/A   Clear